Time;durP1;ratioP1;P1;durP2;ratioP2;P2;SDS_P1;SDS_P2;PMS_P1;PMS_P2;Temp;Humidity;BMP_temperature;BMP_pressure;BME280_temperature;BME280_humidity;BME280_pressure;Samples;Min_cycle;Max_cycle;Signal;HPM_P1;HPM_P2
2023/12/26 00:01:10;;;;;;;1.10;0.60;;;9.50;99.90;;;;;;5091323;28;20511;-46
2023/12/26 00:03:36;;;;;;;0.50;0.50;;;9.50;99.90;;;;;;5091525;28;20067;-46
2023/12/26 00:06:02;;;;;;;0.77;0.40;;;9.50;99.90;;;;;;5090333;28;20067;-46
2023/12/26 00:08:27;;;;;;;0.95;0.47;;;9.50;99.90;;;;;;5091186;28;20040;-46
2023/12/26 00:10:53;;;;;;;0.80;0.43;;;9.50;99.90;;;;;;5085372;28;20481;-46
2023/12/26 00:13:19;;;;;;;0.40;0.40;;;9.50;99.90;;;;;;5090313;28;20173;-48
2023/12/26 00:15:44;;;;;;;1.55;0.52;;;9.40;99.90;;;;;;5090815;28;20041;-46
2023/12/26 00:18:10;;;;;;;0.68;0.50;;;9.60;99.90;;;;;;5083334;28;20082;-46
2023/12/26 00:20:39;;;;;;;0.95;0.35;;;9.50;99.90;;;;;;5090137;28;20037;-46
2023/12/26 00:23:05;;;;;;;0.60;0.30;;;9.50;99.90;;;;;;5090698;28;20036;-46
2023/12/26 00:25:31;;;;;;;0.30;0.30;;;9.50;99.90;;;;;;5091615;28;20047;-46
2023/12/26 00:27:57;;;;;;;1.00;0.35;;;9.50;99.90;;;;;;5091409;28;20159;-46
2023/12/26 00:30:23;;;;;;;0.98;0.50;;;9.60;99.90;;;;;;5091429;28;20127;-47
2023/12/26 00:32:48;;;;;;;0.82;0.60;;;9.60;99.90;;;;;;5088184;28;20032;-46
2023/12/26 00:35:14;;;;;;;0.80;0.60;;;9.60;99.90;;;;;;5091022;28;20040;-46
2023/12/26 00:37:40;;;;;;;0.88;0.70;;;9.50;99.90;;;;;;5090704;28;20074;-47
2023/12/26 00:40:06;;;;;;;1.95;0.60;;;9.60;99.90;;;;;;5090154;28;20132;-46
2023/12/26 00:42:32;;;;;;;1.80;0.70;;;9.70;99.90;;;;;;5084971;28;20069;-46
2023/12/26 00:44:58;;;;;;;1.90;0.60;;;9.70;99.90;;;;;;5086240;28;20036;-46
2023/12/26 00:47:24;;;;;;;2.08;0.70;;;9.70;99.90;;;;;;5093149;28;20044;-46
2023/12/26 00:49:49;;;;;;;0.98;0.75;;;9.80;99.90;;;;;;5081376;28;20043;-46
2023/12/26 00:52:15;;;;;;;0.73;0.70;;;9.80;99.90;;;;;;5077497;28;20036;-45
2023/12/26 00:54:41;;;;;;;1.73;0.90;;;9.70;99.90;;;;;;5083493;28;20796;-45
2023/12/26 00:57:06;;;;;;;1.90;1.10;;;10.00;99.90;;;;;;5061105;28;20086;-45
2023/12/26 00:59:33;;;;;;;0.75;0.75;;;9.80;99.90;;;;;;5074786;28;20108;-46
2023/12/26 01:02:01;;;;;;;1.80;1.00;;;9.80;99.90;;;;;;5075498;28;20119;-48
2023/12/26 01:04:27;;;;;;;;;;;10.00;99.90;;;;;;5074963;28;20058;-46
2023/12/26 01:06:53;;;;;;;2.00;1.40;;;9.90;99.90;;;;;;5077430;28;19928;-46
2023/12/26 01:09:19;;;;;;;2.72;1.73;;;9.90;99.90;;;;;;5074971;28;20040;-47
2023/12/26 01:11:45;;;;;;;2.17;1.50;;;;;;;;;;5075954;28;20117;-45
2023/12/26 01:14:11;;;;;;;1.95;1.52;;;9.90;99.90;;;;;;5076320;28;20044;-46
2023/12/26 01:16:37;;;;;;;2.00;1.70;;;10.00;99.90;;;;;;5072466;28;20044;-45
2023/12/26 01:19:03;;;;;;;2.10;1.90;;;9.90;99.90;;;;;;5074138;28;20372;-45
2023/12/26 01:21:28;;;;;;;3.40;2.13;;;10.10;99.90;;;;;;5072825;28;20470;-48
2023/12/26 01:23:55;;;;;;;3.95;2.00;;;10.10;99.90;;;;;;5077962;28;20043;-46
2023/12/26 01:26:23;;;;;;;2.97;1.90;;;10.20;99.90;;;;;;5077102;28;20447;-45
2023/12/26 01:28:48;;;;;;;;;;;10.20;99.90;;;;;;5079875;28;20048;-46
2023/12/26 01:31:14;;;;;;;2.53;0.40;;;10.00;99.90;;;;;;5077047;28;19939;-46
2023/12/26 01:33:40;;;;;;;1.85;0.70;;;9.80;99.90;;;;;;5075612;28;20048;-47
2023/12/26 01:36:06;;;;;;;0.98;0.60;;;9.70;99.90;;;;;;5080465;28;21047;-45
2023/12/26 01:38:31;;;;;;;2.58;0.90;;;9.80;99.90;;;;;;5082340;28;20044;-48
2023/12/26 01:40:57;;;;;;;3.22;1.20;;;9.80;99.90;;;;;;5081701;28;20085;-46
2023/12/26 01:43:22;;;;;;;6.50;1.10;;;9.90;99.90;;;;;;5084271;28;20190;-45
2023/12/26 01:45:53;;;;;;;3.10;0.70;;;9.90;99.90;;;;;;5080755;28;20039;-46
2023/12/26 01:48:20;;;;;;;3.78;0.70;;;9.80;99.90;;;;;;5082509;28;20032;-45
2023/12/26 01:50:46;;;;;;;5.82;1.10;;;9.70;99.90;;;;;;5086579;28;20482;-46
2023/12/26 01:53:12;;;;;;;5.63;0.93;;;9.60;99.90;;;;;;5085944;28;20032;-47
2023/12/26 01:55:37;;;;;;;4.38;0.90;;;9.60;99.90;;;;;;5081637;28;20040;-45
2023/12/26 01:58:04;;;;;;;5.55;1.10;;;9.50;99.90;;;;;;5082537;28;20045;-45
2023/12/26 02:00:29;;;;;;;3.03;1.20;;;9.50;99.90;;;;;;5081746;28;20048;-47
2023/12/26 02:02:55;;;;;;;4.53;0.68;;;9.40;99.90;;;;;;5086672;28;20051;-45
2023/12/26 02:05:21;;;;;;;7.15;0.85;;;9.40;99.90;;;;;;5084155;28;20036;-46
2023/12/26 02:07:47;;;;;;;2.90;0.70;;;9.40;99.90;;;;;;5080809;28;20540;-46
2023/12/26 02:10:13;;;;;;;5.25;0.80;;;9.40;99.90;;;;;;5081539;28;20039;-46
2023/12/26 02:12:38;;;;;;;4.53;0.75;;;9.30;99.90;;;;;;5086161;28;20039;-47
2023/12/26 02:15:04;;;;;;;3.13;0.80;;;9.30;99.90;;;;;;5083330;28;20128;-47
2023/12/26 02:17:31;;;;;;;3.78;1.02;;;9.30;99.90;;;;;;5082624;28;20491;-46
2023/12/26 02:19:57;;;;;;;6.47;1.10;;;9.30;99.90;;;;;;5085004;28;20047;-47
2023/12/26 02:22:23;;;;;;;5.88;0.95;;;9.30;99.90;;;;;;5082384;28;20071;-46
2023/12/26 02:24:48;;;;;;;5.15;1.15;;;9.30;99.90;;;;;;5083515;28;20059;-48
2023/12/26 02:27:23;;;;;;;6.28;0.95;;;9.30;99.90;;;;;;5086621;28;20047;-45
2023/12/26 02:29:50;;;;;;;5.78;1.10;;;9.30;99.90;;;;;;5084777;28;20035;-47
2023/12/26 02:32:21;;;;;;;4.85;1.10;;;9.30;99.90;;;;;;5083398;28;20036;-46
2023/12/26 02:34:50;;;;;;;8.98;1.27;;;9.30;99.90;;;;;;5082446;28;20048;-46
2023/12/26 02:37:16;;;;;;;7.10;1.67;;;9.30;99.90;;;;;;5081186;28;20051;-49
2023/12/26 02:39:43;;;;;;;7.05;1.52;;;9.30;99.90;;;;;;5065604;28;20505;-48
2023/12/26 02:42:11;;;;;;;8.40;1.50;;;9.30;99.90;;;;;;5081830;28;20038;-48
2023/12/26 02:44:38;;;;;;;9.55;1.58;;;9.40;99.90;;;;;;5087944;28;20048;-47
2023/12/26 02:47:03;;;;;;;10.30;1.77;;;9.40;99.90;;;;;;5084902;28;20044;-47
2023/12/26 02:49:29;;;;;;;7.70;1.40;;;9.40;99.90;;;;;;5084594;28;20032;-47
2023/12/26 02:51:55;;;;;;;7.93;1.45;;;9.50;99.90;;;;;;5078680;28;20070;-48
2023/12/26 02:54:20;;;;;;;8.77;1.70;;;9.40;99.90;;;;;;5080484;28;20033;-47
2023/12/26 02:56:46;;;;;;;12.48;2.05;;;9.50;99.90;;;;;;5079913;28;20058;-47
2023/12/26 02:59:12;;;;;;;13.10;2.15;;;9.50;99.90;;;;;;5079280;28;20052;-46
2023/12/26 03:01:37;;;;;;;9.23;2.08;;;9.50;99.90;;;;;;5078894;28;20105;-47
2023/12/26 03:04:03;;;;;;;6.82;1.58;;;9.50;99.90;;;;;;5080393;28;20029;-48
2023/12/26 03:06:29;;;;;;;9.50;1.83;;;9.50;99.90;;;;;;5084317;28;20051;-47
2023/12/26 03:08:54;;;;;;;6.32;1.40;;;9.50;99.90;;;;;;5079089;28;20560;-47
2023/12/26 03:11:20;;;;;;;10.40;1.48;;;9.50;99.90;;;;;;5085764;28;20047;-47
2023/12/26 03:13:46;;;;;;;10.95;1.55;;;9.50;99.90;;;;;;5086084;28;20044;-47
2023/12/26 03:16:11;;;;;;;12.88;2.15;;;9.50;99.90;;;;;;5081467;28;21282;-46
2023/12/26 03:18:37;;;;;;;12.10;1.80;;;9.50;99.90;;;;;;5081124;28;20056;-46
2023/12/26 03:21:03;;;;;;;8.27;1.45;;;9.50;99.90;;;;;;5081853;28;20649;-47
2023/12/26 03:23:28;;;;;;;9.05;1.58;;;9.50;99.90;;;;;;5082099;28;20415;-47
2023/12/26 03:25:54;;;;;;;7.85;1.63;;;9.40;99.90;;;;;;5085050;28;20032;-46
2023/12/26 03:28:20;;;;;;;9.23;1.85;;;9.40;99.90;;;;;;5080735;28;20044;-47
2023/12/26 03:30:45;;;;;;;8.40;1.60;;;9.40;99.90;;;;;;5080675;28;20047;-47
2023/12/26 03:33:11;;;;;;;8.85;1.50;;;9.40;99.90;;;;;;5085253;28;20040;-47
2023/12/26 03:35:36;;;;;;;7.15;1.60;;;9.40;99.90;;;;;;5079580;28;20039;-47
2023/12/26 03:38:02;;;;;;;12.85;1.73;;;9.30;99.90;;;;;;5079845;28;20044;-46
2023/12/26 03:40:28;;;;;;;9.68;1.70;;;9.30;99.90;;;;;;5079773;28;20051;-46
2023/12/26 03:42:55;;;;;;;9.90;1.63;;;9.30;99.90;;;;;;5080305;28;20047;-47
2023/12/26 03:45:21;;;;;;;10.15;1.52;;;9.40;99.90;;;;;;5084025;28;20036;-47
2023/12/26 03:47:47;;;;;;;9.05;1.70;;;9.40;99.90;;;;;;5083256;28;20036;-48
2023/12/26 03:50:13;;;;;;;5.85;1.95;;;9.50;99.90;;;;;;5083901;28;20044;-47
2023/12/26 03:52:40;;;;;;;10.23;2.20;;;9.50;99.90;;;;;;5083453;28;20105;-47
2023/12/26 03:55:06;;;;;;;14.38;1.95;;;9.60;99.90;;;;;;5081769;28;20387;-50
2023/12/26 03:57:31;;;;;;;6.45;1.40;;;9.60;99.90;;;;;;5083209;28;20044;-45
2023/12/26 03:59:58;;;;;;;7.93;1.67;;;9.30;99.90;;;;;;5083309;28;20044;-46
2023/12/26 04:02:23;;;;;;;5.85;1.60;;;9.10;99.90;;;;;;5080142;28;20048;-45
2023/12/26 04:04:49;;;;;;;5.30;1.35;;;8.90;99.90;;;;;;5082626;28;20290;-45
2023/12/26 04:07:15;;;;;;;3.83;1.15;;;;;;;;;;5080160;28;20032;-46
2023/12/26 04:09:41;;;;;;;9.18;1.20;;;8.50;99.90;;;;;;5082573;28;20040;-45
2023/12/26 04:12:07;;;;;;;5.43;1.13;;;8.40;99.90;;;;;;5081738;28;20392;-46
2023/12/26 04:14:32;;;;;;;10.20;1.67;;;8.20;99.90;;;;;;5081889;28;20040;-47
2023/12/26 04:16:58;;;;;;;6.32;1.10;;;8.00;99.90;;;;;;5082317;28;20135;-47
2023/12/26 04:19:25;;;;;;;8.63;1.60;;;8.00;99.90;;;;;;5084386;28;20116;-46
2023/12/26 04:21:51;;;;;;;4.93;1.10;;;7.90;99.90;;;;;;5078922;28;20040;-48
2023/12/26 04:24:16;;;;;;;7.20;1.30;;;7.70;99.90;;;;;;5080196;28;20442;-47
2023/12/26 04:26:42;;;;;;;6.97;1.23;;;7.60;99.90;;;;;;5066123;28;20078;-47
2023/12/26 04:29:07;;;;;;;9.43;1.40;;;7.60;99.90;;;;;;5082995;28;20131;-46
2023/12/26 04:31:34;;;;;;;10.40;1.73;;;;;;;;;;5078050;28;20126;-46
2023/12/26 04:33:59;;;;;;;12.40;1.85;;;7.50;99.90;;;;;;5077874;28;20071;-46
2023/12/26 04:36:25;;;;;;;9.98;1.70;;;7.60;99.90;;;;;;5079986;28;20490;-47
2023/12/26 04:38:52;;;;;;;11.65;1.67;;;;;;;;;;5081522;28;20044;-50
2023/12/26 04:41:18;;;;;;;11.80;1.45;;;;;;;;;;5081916;28;20040;-47
2023/12/26 04:43:44;;;;;;;9.15;1.85;;;;;;;;;;5082433;28;20047;-48
2023/12/26 04:46:18;;;;;;;9.07;1.67;;;;;;;;;;5081050;28;20048;-46
2023/12/26 04:48:44;;;;;;;10.27;1.45;;;;;;;;;;5080924;28;20076;-47
2023/12/26 04:51:15;;;;;;;10.40;1.95;;;;;;;;;;5085815;28;20048;-46
2023/12/26 04:53:41;;;;;;;9.00;1.88;;;;;;;;;;5082488;28;20032;-46
2023/12/26 04:56:07;;;;;;;8.82;1.35;;;;;;;;;;5086724;28;20173;-47
2023/12/26 04:58:33;;;;;;;12.80;2.08;;;;;;;;;;5061946;28;20059;-47
2023/12/26 05:01:00;;;;;;;9.70;1.73;;;;;;;;;;5080187;28;20040;-46
2023/12/26 05:03:26;;;;;;;9.75;1.73;;;;;;;;;;5085048;28;20048;-46
2023/12/26 05:05:51;;;;;;;6.97;1.50;;;7.30;99.90;;;;;;5081886;28;20568;-48
2023/12/26 05:08:17;;;;;;;7.22;1.42;;;;;;;;;;5079764;28;20052;-47
2023/12/26 05:10:43;;;;;;;9.15;1.65;;;7.00;99.90;;;;;;5079724;28;20044;-48
2023/12/26 05:13:09;;;;;;;9.00;1.70;;;7.20;99.90;;;;;;5082014;28;20028;-48
2023/12/26 05:15:35;;;;;;;9.75;1.58;;;7.10;99.90;;;;;;5082247;28;20064;-47
2023/12/26 05:18:03;;;;;;;10.75;1.65;;;7.00;99.90;;;;;;5080715;28;20093;-47
2023/12/26 05:20:29;;;;;;;11.50;1.70;;;;;;;;;;5080252;28;20083;-47
2023/12/26 05:22:55;;;;;;;10.77;1.60;;;;;;;;;;5078595;28;20051;-47
2023/12/26 05:25:23;;;;;;;10.82;1.48;;;;;;;;;;5078728;28;20046;-49
2023/12/26 05:27:49;;;;;;;9.60;1.75;;;;;;;;;;5081283;28;20063;-48
2023/12/26 05:30:15;;;;;;;9.77;1.75;;;;;;;;;;5065558;28;20048;-48
2023/12/26 05:32:41;;;;;;;13.88;2.08;;;;;;;;;;5083475;28;20539;-50
2023/12/26 05:35:07;;;;;;;9.25;2.38;;;;;;;;;;5083068;28;20734;-47
2023/12/26 05:37:33;;;;;;;10.02;1.40;;;;;;;;;;5083168;28;20040;-47
2023/12/26 05:39:59;;;;;;;7.20;1.55;;;;;;;;;;5084316;28;20067;-47
2023/12/26 05:42:26;;;;;;;10.82;1.95;;;7.20;99.90;;;;;;5083347;28;20048;-48
2023/12/26 05:44:51;;;;;;;9.93;1.55;;;7.20;99.90;;;;;;5084446;28;20047;-47
2023/12/26 05:47:18;;;;;;;8.20;1.65;;;7.20;99.90;;;;;;5081120;28;20059;-46
2023/12/26 05:49:44;;;;;;;7.03;1.67;;;7.10;99.90;;;;;;5083529;28;20048;-47
2023/12/26 05:52:10;;;;;;;9.82;2.03;;;;;;;;;;5087000;28;20047;-47
2023/12/26 05:54:36;;;;;;;10.38;1.60;;;;;;;;;;5085026;28;20165;-47
2023/12/26 05:57:02;;;;;;;11.95;1.95;;;;;;;;;;5084230;28;20036;-47
2023/12/26 05:59:29;;;;;;;8.35;1.90;;;;;;;;;;5085987;28;20050;-49
2023/12/26 06:01:54;;;;;;;9.93;1.80;;;7.40;99.90;;;;;;5084140;28;20092;-46
2023/12/26 06:04:20;;;;;;;10.10;1.55;;;7.50;99.90;;;;;;5080830;28;20194;-46
2023/12/26 06:06:46;;;;;;;9.05;1.80;;;7.50;99.90;;;;;;5083227;28;20028;-46
2023/12/26 06:09:11;;;;;;;12.27;1.85;;;7.30;99.90;;;;;;5085017;28;20063;-49
2023/12/26 06:11:37;;;;;;;8.82;1.75;;;7.50;99.90;;;;;;5085974;28;20032;-46
2023/12/26 06:14:05;;;;;;;8.90;1.83;;;7.50;99.90;;;;;;5085586;28;20390;-46
2023/12/26 06:16:31;;;;;;;13.55;2.35;;;7.60;99.90;;;;;;5081481;28;20790;-47
2023/12/26 06:18:56;;;;;;;10.35;1.63;;;7.70;99.90;;;;;;5084557;28;20075;-47
2023/12/26 06:21:22;;;;;;;12.32;2.10;;;7.80;99.90;;;;;;5088962;28;20044;-46
2023/12/26 06:23:48;;;;;;;12.65;1.98;;;7.90;99.90;;;;;;5083230;28;20045;-46
2023/12/26 06:26:16;;;;;;;13.73;2.67;;;7.80;99.90;;;;;;5088374;28;20141;-46
2023/12/26 06:28:41;;;;;;;11.93;2.08;;;7.90;99.90;;;;;;5091453;28;20051;-47
2023/12/26 06:31:13;;;;;;;7.78;1.67;;;;;;;;;;5083841;28;20040;-46
2023/12/26 06:33:39;;;;;;;12.25;2.20;;;7.90;99.90;;;;;;5079805;28;20178;-47
2023/12/26 06:36:05;;;;;;;11.20;1.80;;;8.00;99.90;;;;;;5083572;28;20062;-47
2023/12/26 06:38:31;;;;;;;9.88;1.90;;;8.00;99.90;;;;;;5085632;28;20044;-47
2023/12/26 06:40:57;;;;;;;8.65;2.30;;;8.00;99.90;;;;;;5080516;28;20051;-47
2023/12/26 06:43:22;;;;;;;11.30;2.10;;;8.00;99.90;;;;;;5082592;28;20497;-48
2023/12/26 06:45:48;;;;;;;13.82;1.80;;;8.00;99.90;;;;;;5088185;28;20036;-46
2023/12/26 06:48:13;;;;;;;16.40;2.58;;;8.00;99.90;;;;;;5085595;28;20398;-49
2023/12/26 06:50:39;;;;;;;12.88;1.83;;;8.10;99.90;;;;;;5089086;28;20446;-47
2023/12/26 06:53:05;;;;;;;10.88;2.00;;;8.10;99.90;;;;;;5084673;28;20040;-47
2023/12/26 06:55:30;;;;;;;9.13;1.95;;;8.10;99.90;;;;;;5081403;28;20040;-47
2023/12/26 06:57:56;;;;;;;11.15;1.83;;;8.10;99.90;;;;;;5084739;28;20044;-47
2023/12/26 07:00:22;;;;;;;7.70;1.90;;;8.10;99.90;;;;;;5078220;28;20040;-47
2023/12/26 07:02:48;;;;;;;10.23;1.98;;;8.10;99.90;;;;;;5083075;28;20059;-46
2023/12/26 07:05:13;;;;;;;12.35;2.40;;;8.10;99.90;;;;;;5078204;28;20397;-48
2023/12/26 07:07:39;;;;;;;11.93;1.95;;;8.10;99.90;;;;;;5079709;28;20532;-47
2023/12/26 07:10:05;;;;;;;10.63;2.20;;;8.10;99.90;;;;;;5081321;28;20036;-46
2023/12/26 07:12:31;;;;;;;14.57;2.25;;;8.10;99.90;;;;;;5088326;28;20469;-50
2023/12/26 07:14:56;;;;;;;16.90;2.20;;;8.10;99.90;;;;;;5082647;28;20051;-47
2023/12/26 07:17:22;;;;;;;10.30;2.08;;;8.10;99.90;;;;;;5080440;28;20043;-49
2023/12/26 07:19:48;;;;;;;14.05;2.13;;;8.20;99.90;;;;;;5081118;28;20048;-49
2023/12/26 07:22:13;;;;;;;9.27;1.83;;;8.20;99.90;;;;;;5083266;28;20554;-50
2023/12/26 07:24:39;;;;;;;12.23;2.25;;;8.20;99.90;;;;;;5079816;28;20048;-48
2023/12/26 07:27:04;;;;;;;12.50;2.25;;;8.20;99.90;;;;;;5081017;28;20048;-49
2023/12/26 07:29:30;;;;;;;14.13;2.45;;;8.20;99.90;;;;;;5082084;28;20044;-47
2023/12/26 07:31:56;;;;;;;12.18;2.88;;;8.20;99.90;;;;;;5077966;28;20085;-47
2023/12/26 07:34:21;;;;;;;8.70;1.92;;;8.20;99.90;;;;;;5080354;28;20201;-47
2023/12/26 07:36:47;;;;;;;13.00;2.58;;;8.10;99.90;;;;;;5062665;28;20036;-48
2023/12/26 07:39:13;;;;;;;15.27;2.50;;;8.20;99.90;;;;;;5085566;28;20080;-46
2023/12/26 07:41:39;;;;;;;14.77;2.80;;;8.20;99.90;;;;;;5079476;28;20040;-48
2023/12/26 07:44:05;;;;;;;14.73;2.45;;;8.20;99.90;;;;;;5079295;28;20048;-47
2023/12/26 07:46:31;;;;;;;18.55;2.90;;;8.20;99.90;;;;;;5079210;28;20116;-47
2023/12/26 07:48:56;;;;;;;12.52;2.60;;;8.20;99.90;;;;;;5077366;28;20032;-47
2023/12/26 07:51:24;;;;;;;14.25;3.17;;;8.20;99.90;;;;;;5083610;28;20398;-46
2023/12/26 07:53:49;;;;;;;11.00;2.20;;;8.20;99.90;;;;;;5080939;28;21451;-46
2023/12/26 07:56:15;;;;;;;12.10;2.92;;;8.20;99.90;;;;;;5083623;28;20382;-46
2023/12/26 07:58:40;;;;;;;15.25;3.13;;;8.20;99.90;;;;;;5085046;28;20098;-46
2023/12/26 08:01:06;;;;;;;9.88;2.47;;;8.20;99.90;;;;;;5064293;28;20052;-47
2023/12/26 08:03:32;;;;;;;12.50;2.53;;;8.20;99.90;;;;;;5081725;28;20035;-49
2023/12/26 08:05:58;;;;;;;15.52;2.80;;;8.20;99.90;;;;;;5079511;28;20423;-48
2023/12/26 08:08:23;;;;;;;10.23;2.42;;;8.10;99.90;;;;;;5083246;28;20036;-47
2023/12/26 08:10:49;;;;;;;10.73;2.40;;;8.10;99.90;;;;;;5082140;28;20093;-47
2023/12/26 08:13:15;;;;;;;11.63;2.20;;;8.00;99.90;;;;;;5081623;28;20036;-49
2023/12/26 08:15:41;;;;;;;14.10;2.22;;;8.00;99.90;;;;;;5086040;28;20101;-47
2023/12/26 08:18:06;;;;;;;12.50;2.45;;;8.00;99.90;;;;;;5082269;28;20489;-46
2023/12/26 08:20:33;;;;;;;13.50;2.10;;;8.10;99.90;;;;;;5087108;28;20043;-48
2023/12/26 08:23:00;;;;;;;12.65;2.60;;;8.10;99.90;;;;;;5084895;28;20040;-48
2023/12/26 08:25:25;;;;;;;15.63;2.50;;;8.10;99.90;;;;;;5083747;28;20408;-46
2023/12/26 08:27:51;;;;;;;14.05;2.40;;;8.10;99.90;;;;;;5066535;28;20036;-47
2023/12/26 08:30:18;;;;;;;16.20;2.90;;;8.10;99.90;;;;;;5061871;28;20047;-48
2023/12/26 08:32:43;;;;;;;12.82;2.05;;;8.20;99.90;;;;;;5087768;28;20047;-47
2023/12/26 08:35:09;;;;;;;19.10;2.65;;;8.20;99.90;;;;;;5085024;28;20040;-49
2023/12/26 08:37:35;;;;;;;13.88;2.50;;;8.20;99.90;;;;;;5085177;28;20032;-46
2023/12/26 08:40:01;;;;;;;13.40;3.00;;;8.10;99.90;;;;;;5088273;28;20055;-47
2023/12/26 08:42:27;;;;;;;11.65;2.85;;;8.10;99.90;;;;;;5083965;28;20044;-47
2023/12/26 08:44:53;;;;;;;12.60;2.33;;;8.10;99.90;;;;;;5086787;28;20044;-47
2023/12/26 08:47:18;;;;;;;18.33;2.60;;;8.20;99.90;;;;;;5086617;28;20044;-47
2023/12/26 08:49:44;;;;;;;11.60;2.22;;;8.10;99.90;;;;;;5083314;28;20039;-46
2023/12/26 08:52:10;;;;;;;13.75;2.28;;;8.10;99.90;;;;;;5083897;28;20109;-46
2023/12/26 08:54:35;;;;;;;16.58;2.75;;;8.00;99.90;;;;;;5083898;28;20370;-47
2023/12/26 08:57:01;;;;;;;13.48;2.47;;;7.90;99.90;;;;;;5085004;28;20051;-47
2023/12/26 08:59:27;;;;;;;11.95;2.25;;;;;;;;;;5084392;28;20576;-46
2023/12/26 09:01:53;;;;;;;12.23;2.08;;;;;;;;;;5080931;28;20055;-47
2023/12/26 09:04:19;;;;;;;12.95;2.40;;;;;;;;;;5083795;28;20044;-47
2023/12/26 09:06:45;;;;;;;14.75;2.25;;;;;;;;;;5082551;28;20125;-47
2023/12/26 09:09:12;;;;;;;15.82;3.17;;;;;;;;;;5085439;28;20150;-47
2023/12/26 09:11:39;;;;;;;16.27;3.10;;;;;;;;;;5087403;28;20040;-48
2023/12/26 09:14:05;;;;;;;12.90;2.35;;;;;;;;;;5090460;28;20048;-48
2023/12/26 09:16:31;;;;;;;14.20;2.58;;;;;;;;;;5089885;28;20178;-50
2023/12/26 09:18:57;;;;;;;15.07;2.28;;;;;;;;;;5081550;28;20136;-48
2023/12/26 09:21:23;;;;;;;13.20;2.30;;;;;;;;;;5068495;28;20044;-49
2023/12/26 09:23:49;;;;;;;11.27;2.10;;;;;;;;;;5087678;28;20078;-47
2023/12/26 09:26:21;;;;;;;13.73;2.67;;;;;;;;;;5086062;28;20082;-47
2023/12/26 09:28:47;;;;;;;11.35;2.80;;;;;;;;;;5084818;28;20127;-47
2023/12/26 09:31:13;;;;;;;14.77;2.42;;;;;;;;;;5078881;28;20189;-47
2023/12/26 09:33:39;;;;;;;15.07;2.97;;;;;;;;;;5080350;28;20362;-47
2023/12/26 09:36:05;;;;;;;10.52;2.33;;;;;;;;;;5081060;28;20498;-49
2023/12/26 09:38:31;;;;;;;11.90;2.00;;;;;;;;;;5082323;28;20138;-47
2023/12/26 09:40:57;;;;;;;12.63;2.15;;;;;;;;;;5085568;28;20055;-47
2023/12/26 09:43:24;;;;;;;18.63;3.05;;;;;;;;;;5079878;28;20052;-48
2023/12/26 09:45:50;;;;;;;14.00;2.70;;;;;;;;;;5079846;28;20489;-49
2023/12/26 09:48:16;;;;;;;13.93;2.60;;;8.40;99.90;;;;;;5087814;28;20040;-49
2023/12/26 09:50:43;;;;;;;19.17;2.75;;;8.50;99.90;;;;;;5085054;28;20104;-47
2023/12/26 09:53:09;;;;;;;16.08;2.42;;;8.50;99.90;;;;;;5087716;28;20040;-49
2023/12/26 09:55:35;;;;;;;15.45;2.50;;;8.50;99.90;;;;;;5083772;28;20046;-48
2023/12/26 09:58:01;;;;;;;13.27;2.85;;;8.40;99.90;;;;;;5086125;28;20055;-47
2023/12/26 10:00:29;;;;;;;13.02;2.58;;;8.40;99.90;;;;;;5088189;28;20151;-47
2023/12/26 10:02:55;;;;;;;10.90;2.37;;;8.40;99.90;;;;;;5086404;28;20434;-49
2023/12/26 10:05:22;;;;;;;16.00;2.47;;;8.40;99.90;;;;;;5085889;28;20334;-47
2023/12/26 10:07:48;;;;;;;13.18;2.83;;;8.50;99.90;;;;;;5085603;28;20385;-49
2023/12/26 10:10:20;;;;;;;16.38;2.88;;;8.50;99.90;;;;;;5088189;28;20092;-48
2023/12/26 10:12:47;;;;;;;15.35;3.15;;;8.60;99.90;;;;;;5081026;28;20135;-48
2023/12/26 10:15:13;;;;;;;15.73;2.70;;;8.60;99.90;;;;;;5087442;28;20140;-47
2023/12/26 10:17:42;;;;;;;15.23;2.67;;;8.60;99.90;;;;;;5082806;28;20123;-48
2023/12/26 10:20:08;;;;;;;13.68;2.63;;;8.60;99.90;;;;;;5085897;28;20059;-48
2023/12/26 10:22:34;;;;;;;16.05;3.08;;;8.50;99.90;;;;;;5086774;28;20089;-49
2023/12/26 10:25:00;;;;;;;11.35;2.15;;;8.60;99.90;;;;;;5084386;28;20032;-47
2023/12/26 10:27:26;;;;;;;18.48;3.08;;;8.50;99.90;;;;;;5087660;28;21531;-48
2023/12/26 10:29:54;;;;;;;15.10;2.88;;;8.50;99.90;;;;;;5092155;28;20103;-48
2023/12/26 10:32:24;;;;;;;11.25;2.95;;;8.60;99.90;;;;;;5090122;28;20405;-46
2023/12/26 10:34:50;;;;;;;13.65;2.78;;;8.60;99.90;;;;;;5074413;28;20058;-48
2023/12/26 10:37:21;;;;;;;12.98;2.45;;;8.70;99.90;;;;;;5091860;28;20489;-48
2023/12/26 10:39:47;;;;;;;21.20;3.10;;;8.80;99.90;;;;;;5089434;28;20513;-47
2023/12/26 10:42:15;;;;;;;12.82;2.50;;;8.80;99.90;;;;;;5088861;28;20055;-47
2023/12/26 10:45:01;;;;;;;12.02;2.42;;;;;;;;;;5087487;28;20128;-47
2023/12/26 10:47:28;;;;;;;14.32;2.63;;;8.90;99.90;;;;;;5087498;28;20052;-47
2023/12/26 10:49:59;;;;;;;12.87;2.50;;;8.90;99.90;;;;;;5089040;28;20129;-47
2023/12/26 10:52:27;;;;;;;16.38;2.55;;;8.90;99.90;;;;;;5089550;28;20130;-47
2023/12/26 10:54:59;;;;;;;15.52;2.85;;;8.90;99.90;;;;;;5088808;28;20371;-47
2023/12/26 10:57:25;;;;;;;13.70;2.45;;;9.00;99.90;;;;;;5089171;28;20517;-47
2023/12/26 13:53:15;;;;;;;15.00;3.15;;;;;;;;;;5085253;28;20040;-46
2023/12/26 13:55:41;;;;;;;14.73;2.90;;;;;;;;;;5088848;28;20504;-47
2023/12/26 13:58:07;;;;;;;12.73;2.83;;;;;;;;;;5091359;28;20036;-46
2023/12/26 14:00:33;;;;;;;14.75;2.72;;;;;;;;;;5093583;28;20438;-46
2023/12/26 14:03:00;;;;;;;17.65;2.95;;;;;;;;;;5093648;28;20487;-46
2023/12/26 14:05:25;;;;;;;15.77;3.30;;;9.10;99.90;;;;;;5095891;28;20044;-49
2023/12/26 14:07:55;;;;;;;16.90;2.85;;;9.10;99.90;;;;;;5092322;28;20048;-47
2023/12/26 14:10:20;;;;;;;16.00;3.55;;;9.00;99.90;;;;;;5077831;28;20123;-47
2023/12/26 14:12:46;;;;;;;14.15;2.92;;;9.00;99.90;;;;;;5092740;28;20128;-46
2023/12/26 14:15:12;;;;;;;11.85;2.90;;;9.00;99.90;;;;;;5092251;28;20032;-46
2023/12/26 14:17:39;;;;;;;14.10;2.70;;;9.00;99.90;;;;;;5091768;28;20152;-46
2023/12/26 14:20:05;;;;;;;11.27;2.63;;;8.90;99.90;;;;;;5088599;28;20447;-46
2023/12/26 14:22:31;;;;;;;17.95;3.58;;;8.90;99.90;;;;;;5074111;28;20088;-48
2023/12/26 14:24:57;;;;;;;11.88;2.45;;;8.90;99.90;;;;;;5091702;28;20115;-46
2023/12/26 14:27:22;;;;;;;11.85;1.95;;;8.90;99.90;;;;;;5090950;28;20063;-48
2023/12/26 14:29:48;;;;;;;7.47;1.90;;;8.80;99.90;;;;;;5090572;28;20051;-46
2023/12/26 14:32:13;;;;;;;7.03;1.50;;;8.60;99.90;;;;;;5087822;28;20140;-46
2023/12/26 14:34:39;;;;;;;7.97;1.40;;;8.50;99.90;;;;;;5092289;28;20040;-45
2023/12/26 14:37:05;;;;;;;6.85;1.65;;;8.40;99.90;;;;;;5093743;28;20036;-46
2023/12/26 14:39:30;;;;;;;7.25;1.42;;;8.40;99.90;;;;;;5092314;28;20060;-46
2023/12/26 14:41:56;;;;;;;10.50;1.40;;;8.40;99.90;;;;;;5090951;28;20062;-48
2023/12/26 14:44:22;;;;;;;5.32;1.25;;;8.30;99.90;;;;;;5089921;28;20044;-46
2023/12/26 14:46:47;;;;;;;9.07;1.55;;;8.20;99.90;;;;;;5092287;28;20510;-47
2023/12/26 14:49:32;;;;;;;7.65;1.50;;;8.10;99.90;;;;;;5091159;28;20125;-45
2023/12/26 14:51:57;;;;;;;8.48;2.03;;;8.00;99.90;;;;;;5092272;28;20079;-46
2023/12/26 14:54:23;;;;;;;8.82;1.40;;;8.00;99.90;;;;;;5089998;28;20136;-49
2023/12/26 14:56:49;;;;;;;8.00;1.10;;;8.00;99.90;;;;;;5091896;28;20546;-46
2023/12/26 14:59:14;;;;;;;6.03;1.42;;;8.00;99.90;;;;;;5091240;28;20479;-46
2023/12/26 15:01:40;;;;;;;7.68;1.40;;;7.90;99.90;;;;;;5082986;28;20477;-47
2023/12/26 15:04:06;;;;;;;4.60;1.00;;;7.80;99.90;;;;;;5091362;28;20504;-48
2023/12/26 15:06:31;;;;;;;6.35;1.08;;;7.70;99.90;;;;;;5090933;28;20051;-47
2023/12/26 15:08:57;;;;;;;8.02;1.17;;;7.70;99.90;;;;;;5070740;28;20040;-46
2023/12/26 15:11:23;;;;;;;6.28;1.10;;;7.60;99.90;;;;;;5092157;28;20123;-45
2023/12/26 15:13:48;;;;;;;5.43;1.02;;;7.40;99.90;;;;;;5088605;28;20120;-45
2023/12/26 15:16:19;;;;;;;6.78;1.35;;;7.40;99.90;;;;;;5091820;28;20058;-46
2023/12/26 15:18:45;;;;;;;4.68;1.02;;;7.30;99.90;;;;;;5089000;28;20047;-48
2023/12/26 15:21:11;;;;;;;4.57;1.00;;;7.20;99.90;;;;;;5091768;28;20040;-49
2023/12/26 15:23:36;;;;;;;4.38;1.00;;;7.20;99.90;;;;;;5091464;28;20050;-45
2023/12/26 15:26:02;;;;;;;9.30;1.30;;;7.10;99.90;;;;;;5090467;28;20071;-48
2023/12/26 15:28:28;;;;;;;4.15;1.10;;;7.10;99.90;;;;;;5091100;28;20077;-45
2023/12/26 15:30:53;;;;;;;5.45;1.00;;;7.00;99.90;;;;;;5091000;28;20036;-46
2023/12/26 15:33:19;;;;;;;6.28;1.40;;;7.00;99.90;;;;;;5090546;28;20127;-46
2023/12/26 15:35:45;;;;;;;6.25;1.00;;;6.90;99.90;;;;;;5089224;28;20052;-46
2023/12/26 15:38:11;;;;;;;7.55;1.00;;;6.80;99.90;;;;;;5090335;28;20056;-49
2023/12/26 15:40:37;;;;;;;8.27;1.58;;;6.80;99.90;;;;;;5090727;28;20047;-45
2023/12/26 15:43:03;;;;;;;6.53;1.30;;;6.80;99.90;;;;;;5067894;28;20047;-48
2023/12/26 15:45:28;;;;;;;6.68;1.10;;;6.70;99.90;;;;;;5088686;28;20048;-48
2023/12/26 15:47:55;;;;;;;6.60;1.20;;;6.70;99.90;;;;;;5091352;28;20040;-46
2023/12/26 15:50:21;;;;;;;6.95;1.60;;;6.60;99.90;;;;;;5090203;28;20048;-46
2023/12/26 15:52:48;;;;;;;6.65;1.45;;;6.50;99.90;;;;;;5077603;28;20039;-46
2023/12/26 15:55:15;;;;;;;5.60;1.10;;;6.50;99.90;;;;;;5089608;28;20461;-46